Time;durP1;ratioP1;P1;durP2;ratioP2;P2;SDS_P1;SDS_P2;PMS_P1;PMS_P2;Temp;Humidity;BMP_temperature;BMP_pressure;BME280_temperature;BME280_humidity;BME280_pressure;Samples;Min_cycle;Max_cycle;Signal;HPM_P1;HPM_P2
2022/11/03 00:01:44;;;;;;;15.88;12.35;;;;;;;9.15;100.00;99825.73;1809668;77;21525;-63
2022/11/03 00:04:17;;;;;;;18.80;13.43;;;;;;;9.19;100.00;99825.61;1838304;75;21599;-62
2022/11/03 00:06:47;;;;;;;16.87;12.33;;;;;;;9.22;100.00;99814.55;1793338;75;21444;-62
2022/11/03 00:09:15;;;;;;;15.60;12.88;;;;;;;9.24;100.00;99810.11;1799710;77;21081;-62
2022/11/03 00:11:44;;;;;;;17.98;12.85;;;;;;;9.26;100.00;99814.84;1827146;77;21801;-62
2022/11/03 00:14:11;;;;;;;15.32;11.90;;;;;;;9.29;100.00;99816.53;1815050;76;21514;-62
2022/11/03 00:16:38;;;;;;;17.07;12.27;;;;;;;9.30;100.00;99816.45;1825415;77;21158;-62
2022/11/03 00:19:06;;;;;;;18.77;12.78;;;;;;;9.32;100.00;99813.34;1827606;76;21910;-62
2022/11/03 00:21:32;;;;;;;18.15;13.30;;;;;;;9.34;100.00;99813.27;1793657;77;21630;-62
2022/11/03 00:24:01;;;;;;;17.85;12.65;;;;;;;9.37;100.00;99813.63;1807438;75;21651;-62
2022/11/03 00:26:29;;;;;;;18.30;13.20;;;;;;;9.40;100.00;99812.19;1820351;77;20939;-63
2022/11/03 00:29:01;;;;;;;19.77;13.55;;;;;;;9.34;100.00;99810.20;1779725;77;20955;-63
2022/11/03 00:31:31;;;;;;;16.70;12.80;;;;;;;9.34;100.00;99815.45;1791152;77;20951;-63
2022/11/03 00:33:58;;;;;;;17.50;13.22;;;;;;;9.35;100.00;99817.62;1820332;76;21420;-63
2022/11/03 00:36:28;;;;;;;17.62;13.60;;;;;;;9.30;100.00;99818.22;1797768;77;21573;-63
2022/11/03 00:38:55;;;;;;;19.23;13.28;;;;;;;9.27;100.00;99814.41;1831687;76;21585;-63
2022/11/03 00:41:23;;;;;;;17.57;12.85;;;;;;;9.26;100.00;99814.84;1820522;77;21550;-63
2022/11/03 00:43:50;;;;;;;19.12;13.58;;;;;;;9.26;100.00;99820.09;1839807;76;21044;-63
2022/11/03 00:46:18;;;;;;;19.60;13.37;;;;;;;9.28;100.00;99818.27;1825446;75;21430;-63
2022/11/03 00:48:45;;;;;;;21.40;12.60;;;;;;;9.28;100.00;99814.80;1811617;76;21834;-63
2022/11/03 00:51:26;;;;;;;20.37;13.45;;;;;;;9.30;100.00;99815.59;1809986;77;21534;-63
2022/11/03 00:53:55;;;;;;;20.52;12.98;;;;;;;9.32;100.00;99813.77;1789273;77;21504;-62
2022/11/03 00:56:29;;;;;;;17.62;13.20;;;;;;;9.33;100.00;99815.50;1805342;76;21604;-62
2022/11/03 00:58:57;;;;;;;19.27;14.25;;;;;;;9.35;100.00;99817.16;1821317;76;21586;-63
2022/11/03 01:01:27;;;;;;;17.37;13.62;;;;;;;9.41;100.00;99819.17;1824964;76;21567;-62
2022/11/03 01:06:50;;;;;;;16.62;12.53;;;;;;;9.39;100.00;99812.66;1828475;76;21569;-62
2022/11/03 01:09:27;;;;;;;17.07;13.10;;;;;;;9.40;100.00;99806.94;1744941;80;21469;-62
2022/11/03 01:12:13;;;;;;;20.43;14.20;;;;;;;9.44;100.00;99802.02;1805456;77;21546;-62
2022/11/03 01:14:50;;;;;;;16.35;12.90;;;;;;;9.47;100.00;99810.61;1833876;75;21733;-62
2022/11/03 01:17:24;;;;;;;19.85;13.65;;;;;;;9.48;100.00;99807.08;1818529;75;21008;-62
2022/11/03 01:19:50;;;;;;;23.55;14.98;;;;;;;9.49;100.00;99804.88;1820958;76;21547;-62
2022/11/03 01:22:19;;;;;;;19.57;14.43;;;;;;;9.47;100.00;99808.45;1764658;80;21551;-62
2022/11/03 01:24:46;;;;;;;21.40;15.08;;;;;;;9.46;100.00;99812.00;1774397;78;21103;-63
2022/11/03 01:27:17;;;;;;;18.57;13.93;;;;;;;9.42;100.00;99809.94;1803226;77;21600;-62
2022/11/03 01:29:43;;;;;;;22.02;14.05;;;;;;;9.41;100.00;99808.67;1794663;77;21417;-62
2022/11/03 01:32:11;;;;;;;20.48;14.25;;;;;;;9.42;100.00;99811.25;1766173;79;21413;-63
2022/11/03 01:34:38;;;;;;;21.05;13.13;;;;;;;9.50;100.00;99813.59;1750751;80;21563;-63
2022/11/03 01:37:06;;;;;;;18.48;13.65;;;;;;;9.51;100.00;99815.30;1838541;75;21022;-63
2022/11/03 01:39:33;;;;;;;16.77;13.20;;;;;;;9.55;100.00;99819.08;1753837;80;21505;-63
2022/11/03 01:41:59;;;;;;;21.62;14.25;;;;;;;9.65;100.00;99823.55;1736209;80;21599;-63
2022/11/03 01:44:34;;;;;;;18.77;13.75;;;;;;;9.67;100.00;99824.34;1755455;79;21551;-63
2022/11/03 01:47:30;;;;;;;17.02;13.43;;;;;;;9.62;100.00;99818.39;1763587;79;21452;-63
2022/11/03 01:50:07;;;;;;;20.35;14.40;;;;;;;9.55;100.00;99816.45;1755128;79;21533;-63
2022/11/03 01:52:38;;;;;;;19.87;15.37;;;;;;;9.49;100.00;99808.81;1765714;78;21889;-62
2022/11/03 01:55:24;;;;;;;21.68;14.03;;;;;;;9.48;100.00;99810.17;1777608;77;21533;-63
2022/11/03 01:58:04;;;;;;;19.15;13.55;;;;;;;9.51;100.00;99820.55;1800446;77;21101;-63
2022/11/03 02:00:31;;;;;;;19.70;13.98;;;;;;;9.57;100.00;99826.91;1756932;79;21488;-62
2022/11/03 02:02:58;;;;;;;18.75;13.90;;;;;;;9.61;100.00;99821.95;1800748;77;21545;-62
2022/11/03 02:05:24;;;;;;;19.25;13.38;;;;;;;9.64;100.00;99824.44;1757412;79;21878;-62
2022/11/03 02:08:18;;;;;;;18.45;13.95;;;;;;;9.65;100.00;99814.35;1759604;78;21527;-63
2022/11/03 02:10:48;;;;;;;19.67;13.25;;;;;;;9.64;100.00;99815.25;1750622;79;21622;-64
2022/11/03 02:13:23;;;;;;;18.42;13.62;;;;;;;9.64;100.00;99817.03;1752659;80;21572;-64
2022/11/03 02:15:55;;;;;;;21.55;13.22;;;;;;;9.63;100.00;99817.49;1737206;80;21057;-64
2022/11/03 02:18:30;;;;;;;19.57;14.98;;;;;;;9.64;100.00;99814.41;1748218;80;21785;-63
2022/11/03 02:21:19;;;;;;;19.65;13.62;;;;;;;9.63;100.00;99813.55;1763734;79;21491;-63
2022/11/03 02:24:02;;;;;;;19.82;14.50;;;;;;;9.61;100.00;99810.13;1744757;80;21046;-63
2022/11/03 02:26:28;;;;;;;21.95;13.88;;;;;;;9.58;100.00;99822.05;1793461;77;21538;-63
2022/11/03 02:28:55;;;;;;;16.85;13.53;;;;;;;9.63;100.00;99820.12;1750683;80;21056;-64
2022/11/03 02:31:44;;;;;;;23.00;14.70;;;;;;;9.67;100.00;99827.43;1776795;78;21871;-67
2022/11/03 02:34:21;;;;;;;17.67;14.35;;;;;;;9.68;100.00;99826.06;1748539;79;21561;-65
2022/11/03 02:36:58;;;;;;;19.75;14.33;;;;;;;9.67;100.00;99817.78;1752747;79;21488;-65
2022/11/03 02:39:35;;;;;;;20.30;13.75;;;;;;;9.67;100.00;99816.46;1746170;80;21489;-64
2022/11/03 02:42:02;;;;;;;20.70;14.55;;;;;;;9.63;100.00;99814.87;1727521;79;21660;-64
2022/11/03 02:44:29;;;;;;;20.85;14.10;;;;;;;9.65;100.00;99809.56;1747823;79;21885;-64
2022/11/03 02:46:59;;;;;;;22.85;15.60;;;;;;;9.73;100.00;99812.76;1724883;80;21499;-64
2022/11/03 02:49:26;;;;;;;21.70;13.95;;;;;;;9.76;100.00;99810.03;1812370;76;21630;-64
2022/11/03 02:52:00;;;;;;;21.33;15.53;;;;;;;9.86;100.00;99810.08;1768287;79;21568;-64
2022/11/03 02:54:40;;;;;;;24.57;15.53;;;;;;;9.89;100.00;99808.66;1762078;79;21552;-65
2022/11/03 02:57:15;;;;;;;24.52;15.80;;;;;;;9.86;100.00;99807.45;1761969;79;21955;-64
2022/11/03 02:59:47;;;;;;;24.80;15.75;;;;;;;9.87;100.00;99805.23;1759753;78;21552;-65
2022/11/03 03:02:25;;;;;;;23.95;15.55;;;;;;;9.88;100.00;99797.73;1753989;79;21560;-64
2022/11/03 03:04:55;;;;;;;25.50;15.72;;;;;;;9.89;100.00;99797.31;1757419;79;21007;-66
2022/11/03 03:07:29;;;;;;;24.57;15.40;;;;;;;9.90;100.00;99804.25;1760411;79;21416;-65
2022/11/03 03:10:03;;;;;;;29.55;16.87;;;;;;;9.98;100.00;99805.28;1756693;79;21824;-66
2022/11/03 03:12:31;;;;;;;31.17;16.17;;;;;;;10.05;100.00;99798.88;1744723;80;21428;-66
2022/11/03 03:14:58;;;;;;;29.02;16.20;;;;;;;10.03;100.00;99799.41;1743447;79;21502;-63
2022/11/03 03:17:42;;;;;;;28.98;17.17;;;;;;;10.01;100.00;99793.36;1752856;79;21586;-62
2022/11/03 03:20:24;;;;;;;29.18;16.50;;;;;;;10.03;100.00;99789.74;1779313;78;21557;-64
2022/11/03 03:22:55;;;;;;;26.37;15.75;;;;;;;10.04;100.00;99795.84;1776192;78;21818;-64
2022/11/03 03:25:32;;;;;;;25.68;15.65;;;;;;;10.06;100.00;99796.20;1770252;77;21576;-65
2022/11/03 03:28:04;;;;;;;29.55;16.10;;;;;;;10.18;100.00;99796.65;1767925;78;21600;-64
2022/11/03 03:30:30;;;;;;;25.55;15.90;;;;;;;10.20;100.00;99794.81;1774133;77;21025;-63
2022/11/03 03:32:58;;;;;;;27.85;15.72;;;;;;;10.18;100.00;99793.55;1779666;78;21523;-64
2022/11/03 03:35:28;;;;;;;26.75;16.37;;;;;;;10.16;100.00;99790.59;1760685;80;21920;-64
2022/11/03 03:37:58;;;;;;;25.88;15.98;;;;;;;10.16;100.00;99784.03;1817041;76;21403;-64
2022/11/03 03:40:32;;;;;;;24.05;14.73;;;;;;;10.07;100.00;99790.02;1806271;75;21440;-64
2022/11/03 03:43:01;;;;;;;27.37;14.55;;;;;;;10.07;100.00;99789.17;1796723;77;21558;-64
2022/11/03 03:45:28;;;;;;;27.75;15.45;;;;;;;10.10;100.00;99792.54;1815258;75;21562;-64
2022/11/03 03:47:55;;;;;;;22.90;15.40;;;;;;;10.20;100.00;99794.81;1822123;76;21783;-64
2022/11/03 03:50:23;;;;;;;25.85;15.80;;;;;;;10.23;100.00;99788.98;1811798;77;20956;-64
2022/11/03 03:53:02;;;;;;;28.40;17.23;;;;;;;10.28;100.00;99779.59;1807041;77;21487;-64
2022/11/03 03:55:39;;;;;;;30.55;17.23;;;;;;;10.26;100.00;99782.73;1769641;77;21586;-64
2022/11/03 03:58:05;;;;;;;31.50;16.95;;;;;;;10.25;100.00;99771.38;1826892;76;21802;-63
2022/11/03 04:00:32;;;;;;;27.45;15.58;;;;;;;10.25;100.00;99770.53;1818654;76;21417;-63
2022/11/03 04:02:59;;;;;;;28.23;15.60;;;;;;;10.23;100.00;99761.39;1817466;77;21098;-64
2022/11/03 04:05:26;;;;;;;29.63;15.85;;;;;;;10.27;100.00;99771.33;1802046;77;21400;-64
2022/11/03 04:07:53;;;;;;;25.77;15.55;;;;;;;10.29;100.00;99766.86;1833602;77;21415;-63
2022/11/03 04:10:21;;;;;;;25.32;15.03;;;;;;;10.26;100.00;99763.03;1776935;78;21599;-64
2022/11/03 04:23:38;;;;;;;16.70;12.70;;;;;;;10.21;100.00;99760.60;1795492;77;21562;-63
2022/11/03 04:26:12;;;;;;;19.75;12.18;;;;;;;10.24;100.00;99753.89;1796320;77;21894;-63
2022/11/03 04:28:39;;;;;;;16.70;11.43;;;;;;;10.26;100.00;99752.05;1796194;77;21565;-64
2022/11/03 04:31:13;;;;;;;16.57;11.57;;;;;;;10.28;100.00;99759.45;1818070;77;21494;-64
2022/11/03 04:33:41;;;;;;;17.45;11.78;;;;;;;10.28;100.00;99759.45;1794190;77;21668;-63
2022/11/03 04:36:18;;;;;;;16.32;11.03;;;;;;;10.27;100.00;99759.50;1821295;76;21559;-63
2022/11/03 04:38:47;;;;;;;14.95;10.95;;;;;;;10.21;100.00;99755.78;1843352;76;21912;-66
2022/11/03 04:41:18;;;;;;;15.05;11.28;;;;;;;10.22;100.00;99756.19;1798808;76;21051;-63
2022/11/03 04:43:46;;;;;;;19.42;11.33;;;;;;;10.21;100.00;99760.60;1815063;76;21544;-63
2022/11/03 04:46:16;;;;;;;11.78;10.43;;;;;;;10.23;100.00;99761.86;1814645;76;21122;-64
2022/11/03 04:48:43;;;;;;;13.85;9.75;;;;;;;10.22;100.00;99759.66;1811062;77;21546;-64
2022/11/03 04:51:21;;;;;;;15.13;9.28;;;;;;;10.27;100.00;99760.81;1815905;77;21377;-65
2022/11/03 04:53:53;;;;;;;10.63;8.23;;;;;;;10.32;100.00;99763.69;1811554;76;20922;-64
2022/11/03 04:56:21;;;;;;;9.68;8.63;;;;;;;10.31;100.00;99768.53;1793893;77;21548;-64
2022/11/03 04:58:48;;;;;;;9.58;7.62;;;;;;;10.36;100.00;99766.17;1793762;76;21006;-64
2022/11/03 05:01:17;;;;;;;9.03;8.08;;;;;;;10.40;100.00;99760.75;1819721;75;21011;-64
2022/11/03 05:03:45;;;;;;;10.75;8.35;;;;;;;10.43;100.00;99754.04;1821557;75;21771;-65
2022/11/03 05:06:27;;;;;;;9.78;7.30;;;;;;;10.41;100.00;99754.56;1823511;75;21457;-64
2022/11/03 05:08:59;;;;;;;8.23;7.40;;;;;;;10.35;100.00;99758.76;1815693;77;21545;-64
2022/11/03 05:11:35;;;;;;;10.38;7.35;;;;;;;10.37;100.00;99766.13;1818492;76;21506;-63
2022/11/03 05:14:18;;;;;;;8.65;7.80;;;;;;;10.44;100.00;99770.69;1834341;75;21551;-64
2022/11/03 05:16:45;;;;;;;8.15;6.47;;;;;;;10.48;100.00;99769.17;1797018;75;21776;-63
2022/11/03 05:19:31;;;;;;;7.42;6.67;;;;;;;10.56;100.00;99770.64;1792399;76;21687;-70
2022/11/03 05:21:59;;;;;;;7.00;6.33;;;;;;;10.63;100.00;99764.22;1797186;75;21515;-65
2022/11/03 05:24:25;;;;;;;6.85;6.20;;;;;;;10.66;100.00;99765.39;1832452;76;21522;-65
2022/11/03 05:26:56;;;;;;;6.97;6.28;;;;;;;10.69;100.00;99774.02;1836372;76;21715;-66
2022/11/03 05:29:37;;;;;;;7.55;6.42;;;;;;;10.71;100.00;99772.64;1831432;77;21863;-66
2022/11/03 05:32:16;;;;;;;7.42;6.62;;;;;;;10.74;100.00;99768.58;1792835;76;21449;-62
2022/11/03 05:34:46;;;;;;;7.62;5.95;;;;;;;10.77;100.00;99763.17;1841125;75;21454;-64
2022/11/03 05:37:28;;;;;;;6.65;6.03;;;;;;;10.86;100.00;99764.58;1814471;77;21490;-64
2022/11/03 05:40:24;;;;;;;6.70;5.70;;;;;;;10.95;100.00;99769.45;1820039;76;21661;-60
2022/11/03 05:42:59;;;;;;;7.05;6.05;;;;;;;10.98;100.00;99771.96;1808611;76;21918;-60
2022/11/03 05:45:34;;;;;;;7.80;6.25;;;;;;;10.96;100.00;99775.56;1832219;76;21682;-60
2022/11/03 05:48:39;;;;;;;7.62;6.20;;;;;;;10.98;100.00;99770.65;1809887;75;20977;-59
2022/11/03 05:51:24;;;;;;;6.72;6.10;;;;;;;10.98;100.00;99780.30;1823494;76;21610;-60
2022/11/03 05:53:55;;;;;;;7.15;6.00;;;;;;;10.98;100.00;99778.98;1814032;77;21504;-60
2022/11/03 05:56:23;;;;;;;7.15;6.20;;;;;;;10.96;100.00;99778.19;1828308;77;22074;-60
2022/11/03 05:58:51;;;;;;;5.58;5.08;;;;;;;10.90;100.00;99781.47;1814497;75;20942;-60
2022/11/03 06:01:28;;;;;;;6.05;5.45;;;;;;;10.94;100.00;99776.09;1822092;76;21454;-60
2022/11/03 06:03:58;;;;;;;5.50;4.92;;;;;;;10.97;100.00;99774.66;1792950;76;21475;-62
2022/11/03 06:06:34;;;;;;;6.92;5.50;;;;;;;10.94;100.00;99782.19;1830642;77;21533;-63
2022/11/03 06:09:03;;;;;;;5.50;5.00;;;;;;;10.99;100.00;99780.70;1823678;77;21904;-62
2022/11/03 06:11:32;;;;;;;;;;;;;;;11.08;100.00;99778.53;1814985;76;21652;-63
2022/11/03 06:13:59;;;;;;;5.25;4.55;;;;;;;11.10;100.00;99783.27;1840681;75;20503;-62
2022/11/03 06:16:39;;;;;;;5.67;5.17;;;;;;;11.16;100.00;99787.41;1789474;77;21668;-61
2022/11/03 06:19:18;;;;;;;5.97;5.25;;;;;;;11.25;100.00;99794.06;1832290;75;21403;-66
2022/11/03 06:21:47;;;;;;;5.72;5.12;;;;;;;11.35;100.00;99794.52;1811011;76;21526;-61
2022/11/03 06:24:14;;;;;;;7.28;5.90;;;;;;;11.43;100.00;99793.70;1830646;76;20947;-61
2022/11/03 10:19:32;;;;;;;12.28;5.50;;;;;;;10.50;100.00;99776.54;1837679;76;26350;-67
2022/11/03 10:21:59;;;;;;;4.55;4.15;;;;;;;10.90;100.00;99795.93;1815155;77;21651;-62
2022/11/03 10:24:26;;;;;;;3.77;3.45;;;;;;;11.10;100.00;99780.63;1810371;77;21794;-65
2022/11/03 10:26:56;;;;;;;4.12;3.42;;;;;;;11.22;100.00;99765.23;1806716;77;21147;-65
2022/11/03 10:29:24;;;;;;;3.37;3.08;;;;;;;11.32;100.00;99765.68;1818992;77;21590;-63
2022/11/03 10:31:55;;;;;;;3.20;2.90;;;;;;;11.42;100.00;99767.85;1813586;77;21554;-64
2022/11/03 10:34:34;;;;;;;6.20;3.05;;;;;;;11.52;100.00;99768.77;1800235;77;21269;-62
2022/11/03 10:37:20;;;;;;;3.00;2.70;;;;;;;11.55;100.00;99770.80;1815287;77;21879;-60
2022/11/03 10:39:48;;;;;;;2.65;2.45;;;;;;;11.61;100.00;99770.52;1820772;77;21574;-61
2022/11/03 10:42:24;;;;;;;4.53;2.83;;;;;;;11.62;100.00;99772.23;1817163;77;21462;-64
2022/11/03 10:44:53;;;;;;;3.25;2.72;;;;;;;11.61;100.00;99764.40;1813808;77;21588;-66
2022/11/03 10:47:33;;;;;;;3.42;2.77;;;;;;;11.62;100.00;99758.19;1810720;77;21483;-66
2022/11/03 10:50:22;;;;;;;3.10;2.42;;;;;;;11.53;100.00;99759.48;1806145;77;21813;-63
2022/11/03 10:52:49;;;;;;;5.20;2.65;;;;;;;11.49;100.00;99769.77;1800429;78;21509;-59
2022/11/03 10:55:17;;;;;;;3.70;2.40;;;;;;;11.48;100.00;99763.62;1817961;77;21470;-60
2022/11/03 10:57:45;;;;;;;3.15;2.12;;;;;;;11.43;100.00;99766.94;1814836;77;21569;-59
2022/11/03 11:00:17;;;;;;;2.85;2.30;;;;;;;11.42;100.00;99767.85;1815982;77;21596;-60
2022/11/03 11:02:47;;;;;;;2.30;2.10;;;;;;;11.42;100.00;99778.85;1814732;77;21774;-59
2022/11/03 11:05:20;;;;;;;2.98;2.20;;;;;;;11.40;100.00;99770.17;1817137;77;21418;-63
2022/11/03 11:07:47;;;;;;;4.20;2.20;;;;;;;11.41;100.00;99759.55;1813129;77;21084;-60
2022/11/03 11:10:28;;;;;;;3.70;2.10;;;;;;;11.40;100.00;99755.69;1821188;77;21433;-61
2022/11/03 11:13:22;;;;;;;2.37;2.17;;;;;;;11.38;100.00;99756.22;1814389;77;21012;-61
2022/11/03 11:15:58;;;;;;;4.03;2.33;;;;;;;11.34;100.00;99754.63;1814040;77;21791;-59
2022/11/03 11:18:33;;;;;;;4.58;2.45;;;;;;;11.27;100.00;99752.73;1812992;77;21473;-61
2022/11/03 11:21:25;;;;;;;4.17;2.52;;;;;;;11.20;100.00;99749.97;1818082;77;21565;-60
2022/11/03 11:23:53;;;;;;;3.20;2.35;;;;;;;11.16;100.00;99762.41;1797284;77;21632;-60
2022/11/03 11:26:31;;;;;;;2.65;2.40;;;;;;;11.07;100.00;99757.54;1813253;77;21497;-59
2022/11/03 11:29:14;;;;;;;3.85;2.20;;;;;;;11.07;100.00;99753.59;1825701;77;21785;-61
2022/11/03 11:31:42;;;;;;;4.12;2.42;;;;;;;11.07;100.00;99765.43;1822723;76;21068;-61
2022/11/03 11:34:18;;;;;;;2.42;2.12;;;;;;;11.02;100.00;99765.64;1820902;77;21084;-62
2022/11/03 11:36:55;;;;;;;3.42;2.80;;;;;;;11.03;100.00;99765.17;1820144;77;21485;-68
2022/11/03 11:39:34;;;;;;;3.00;2.70;;;;;;;11.03;100.00;99763.86;1830008;77;21500;-63
2022/11/03 11:42:18;;;;;;;3.10;2.80;;;;;;;11.07;100.00;99764.12;1805040;77;21785;-70
2022/11/03 11:44:53;;;;;;;4.53;2.50;;;;;;;11.03;100.00;99759.91;1807784;77;21589;-69
2022/11/03 11:47:30;;;;;;;2.80;2.60;;;;;;;11.02;100.00;99754.23;1809904;78;21548;-69
2022/11/03 11:50:15;;;;;;;2.87;2.60;;;;;;;11.03;100.00;99762.55;1814820;77;21593;-67
2022/11/03 11:53:04;;;;;;;4.28;3.02;;;;;;;11.04;100.00;99748.02;1812698;77;21549;-65
2022/11/03 11:55:49;;;;;;;3.33;3.02;;;;;;;11.08;100.00;99764.52;1808409;77;21614;-66
2022/11/03 11:58:35;;;;;;;3.22;2.92;;;;;;;11.12;100.00;99750.31;1824686;77;21507;-69
2022/11/03 12:01:22;;;;;;;3.40;2.62;;;;;;;11.12;100.00;99750.31;1816668;77;29115;-67
2022/11/03 12:03:50;;;;;;;2.63;2.43;;;;;;;11.12;100.00;99742.41;1810632;77;21018;-69
2022/11/03 12:06:17;;;;;;;2.92;2.58;;;;;;;11.06;100.00;99738.27;1802026;77;21557;-68
2022/11/03 12:08:44;;;;;;;3.47;2.75;;;;;;;11.04;100.00;99736.64;1796654;77;22160;-67
2022/11/03 12:11:11;;;;;;;2.20;2.08;;;;;;;11.05;100.00;99735.70;1812777;77;21635;-69
2022/11/03 12:13:47;;;;;;;4.42;2.30;;;;;;;11.01;100.00;99736.29;1799866;77;21014;-70
2022/11/03 12:16:32;;;;;;;3.05;2.83;;;;;;;11.05;100.00;99735.23;1808753;77;21065;-62
2022/11/03 12:19:39;;;;;;;3.72;3.17;;;;;;;11.09;100.00;99734.64;1806004;77;22330;-64
2022/11/03 12:22:10;;;;;;;3.22;2.70;;;;;;;11.09;100.00;99725.44;1816933;77;21844;-64
2022/11/03 12:24:52;;;;;;;4.67;2.83;;;;;;;11.04;100.00;99725.65;1819018;77;20946;-63
2022/11/03 12:27:28;;;;;;;5.12;2.92;;;;;;;11.04;100.00;99726.12;1819897;77;21521;-65
2022/11/03 12:29:58;;;;;;;3.17;2.90;;;;;;;11.06;100.00;99721.17;1820000;77;21533;-66
2022/11/03 12:32:25;;;;;;;3.08;2.77;;;;;;;11.04;100.00;99724.33;1818733;76;21521;-63
2022/11/03 12:34:54;;;;;;;3.22;2.90;;;;;;;11.12;100.00;99724.47;1823252;77;21601;-63
2022/11/03 12:37:22;;;;;;;3.02;2.70;;;;;;;11.05;100.00;99718.13;1817653;77;21036;-60
2022/11/03 12:39:48;;;;;;;4.97;3.05;;;;;;;11.01;100.00;99724.45;1806626;77;21544;-67
2022/11/03 12:42:15;;;;;;;3.35;3.00;;;;;;;10.98;100.00;99730.30;1815071;77;21583;-65
2022/11/03 12:44:42;;;;;;;4.28;2.80;;;;;;;11.07;100.00;99725.50;1812740;77;21430;-66
2022/11/03 12:47:09;;;;;;;3.10;2.80;;;;;;;11.08;100.00;99727.22;1817345;77;21777;-64
2022/11/03 12:49:37;;;;;;;2.87;2.65;;;;;;;11.09;100.00;99726.31;1807723;77;21707;-63
2022/11/03 12:52:06;;;;;;;4.33;3.45;;;;;;;11.05;100.00;99729.13;1759492;80;21443;-65
2022/11/03 12:54:33;;;;;;;4.28;3.90;;;;;;;11.08;100.00;99735.11;1760139;80;21526;-65
2022/11/03 12:57:00;;;;;;;3.70;3.40;;;;;;;11.13;100.00;99734.05;1759690;80;21024;-65
2022/11/03 12:59:27;;;;;;;3.42;3.12;;;;;;;11.15;100.00;99742.30;1775101;78;21898;-65
2022/11/03 13:01:54;;;;;;;6.23;3.40;;;;;;;11.19;100.00;99739.03;1773289;78;21561;-65
2022/11/03 13:04:20;;;;;;;3.90;3.25;;;;;;;11.20;100.00;99733.71;1773226;78;21806;-62
2022/11/03 13:06:47;;;;;;;3.83;3.33;;;;;;;11.21;100.00;99740.70;1823259;77;21565;-64
2022/11/03 13:09:14;;;;;;;3.20;2.87;;;;;;;11.25;100.00;99737.00;1820906;77;21427;-63
2022/11/03 13:14:28;;;;;;;3.37;3.08;;;;;;;11.17;100.00;99732.55;1807417;77;20169;-64
2022/11/03 13:16:55;;;;;;;3.27;2.77;;;;;;;11.12;100.00;99727.94;1819361;77;21529;-62
2022/11/03 13:19:22;;;;;;;4.33;3.12;;;;;;;11.15;100.00;99730.89;1830004;77;21522;-64
2022/11/03 13:21:48;;;;;;;3.10;2.90;;;;;;;11.13;100.00;99727.47;1812276;77;21127;-64
2022/11/03 13:24:15;;;;;;;5.70;3.30;;;;;;;11.13;100.00;99734.05;1820738;76;21794;-65
2022/11/03 13:26:42;;;;;;;4.50;3.35;;;;;;;11.17;100.00;99728.61;1817618;77;21487;-64
2022/11/03 13:29:09;;;;;;;3.63;3.33;;;;;;;11.18;100.00;99724.19;1814591;77;21490;-65
2022/11/03 13:31:35;;;;;;;4.10;3.60;;;;;;;11.13;100.00;99724.84;1818463;77;21022;-64
2022/11/03 13:34:02;;;;;;;5.15;4.25;;;;;;;11.20;100.00;99732.39;1815455;77;20970;-64
2022/11/03 13:36:30;;;;;;;3.85;3.55;;;;;;;11.26;100.00;99740.48;1819757;77;21459;-64
2022/11/03 13:38:56;;;;;;;4.50;4.03;;;;;;;11.35;100.00;99738.77;1781884;78;21559;-64
2022/11/03 13:41:24;;;;;;;4.62;3.90;;;;;;;11.38;100.00;99735.16;1816325;77;21548;-63
2022/11/03 13:43:51;;;;;;;5.97;4.28;;;;;;;11.29;100.00;99741.20;1813159;77;21533;-62
2022/11/03 13:46:17;;;;;;;4.15;3.72;;;;;;;11.26;100.00;99745.31;1808759;77;21143;-66
2022/11/03 13:48:44;;;;;;;4.25;3.67;;;;;;;11.26;100.00;99763.73;1807131;77;21833;-63
2022/11/03 18:09:20;;;;;;;8.90;6.72;;;;;;;7.98;100.00;99934.55;1829763;74;26924;-66
2022/11/03 18:14:34;;;;;;;12.70;7.22;;;;;;;8.77;100.00;99937.09;1832272;75;21987;-64
2022/11/03 18:20:56;;;;;;;18.40;7.70;;;;;;;9.19;100.00;99914.34;1809061;76;21604;-64
2022/11/03 18:23:26;;;;;;;17.73;7.87;;;;;;;9.41;100.00;99901.37;1810518;76;21015;-64
2022/11/03 18:25:53;;;;;;;11.83;6.90;;;;;;;9.56;100.00;99893.43;1819843;76;21371;-66
2022/11/03 18:28:19;;;;;;;7.60;5.53;;;;;;;9.68;100.00;99889.08;1818877;76;21882;-65
2022/11/03 18:30:48;;;;;;;7.10;4.80;;;;;;;9.81;100.00;99883.38;1816193;76;21006;-63
2022/11/03 18:33:28;;;;;;;6.95;4.72;;;;;;;9.93;100.00;99883.80;1809145;76;21506;-67
2022/11/03 18:35:55;;;;;;;6.80;4.95;;;;;;;10.04;100.00;99874.22;1808259;77;21541;-64
2022/11/03 18:38:23;;;;;;;8.60;4.85;;;;;;;10.09;100.00;99857.80;1823206;76;20920;-64
2022/11/03 18:40:50;;;;;;;8.15;5.37;;;;;;;10.13;100.00;99857.23;1794226;76;21877;-64
2022/11/03 18:43:22;;;;;;;7.42;5.17;;;;;;;10.20;100.00;99857.88;1819771;77;21564;-65
2022/11/03 18:45:49;;;;;;;5.83;4.50;;;;;;;10.24;100.00;99860.31;1817668;77;21708;-64
2022/11/03 18:48:19;;;;;;;7.37;4.97;;;;;;;10.28;100.00;99847.92;1825325;76;21104;-64
2022/11/03 18:50:54;;;;;;;4.92;4.42;;;;;;;10.34;100.00;99853.00;1801004;75;21734;-65
2022/11/03 18:53:22;;;;;;;6.03;4.05;;;;;;;10.39;100.00;99858.91;1817581;77;21939;-65
2022/11/03 18:55:49;;;;;;;5.90;4.58;;;;;;;10.46;100.00;99855.59;1826328;76;21503;-63
2022/11/03 18:58:22;;;;;;;6.22;4.12;;;;;;;10.51;100.00;99856.28;1802518;77;21100;-63
2022/11/03 19:00:51;;;;;;;4.33;3.85;;;;;;;10.54;100.00;99854.83;1792494;77;21539;-63
2022/11/03 19:03:21;;;;;;;7.50;4.17;;;;;;;10.59;100.00;99861.23;1805011;76;21564;-64
2022/11/03 19:05:49;;;;;;;6.15;4.42;;;;;;;10.63;100.00;99850.52;1819542;76;21888;-63
2022/11/03 19:08:27;;;;;;;5.50;4.25;;;;;;;10.67;100.00;99853.42;1806799;76;21506;-67
2022/11/03 19:10:55;;;;;;;7.12;4.75;;;;;;;10.73;100.00;99846.22;1799863;77;21452;-63
2022/11/03 19:13:33;;;;;;;6.72;3.77;;;;;;;10.75;100.00;99852.27;1807841;77;21006;-63
2022/11/03 19:16:05;;;;;;;3.83;3.30;;;;;;;10.79;100.00;99855.16;1788048;77;21731;-64
2022/11/03 19:18:34;;;;;;;4.53;3.25;;;;;;;10.82;100.00;99850.64;1787929;77;21657;-64
2022/11/03 19:21:01;;;;;;;3.80;3.50;;;;;;;10.84;100.00;99851.90;1779465;77;21453;-65
2022/11/03 19:23:27;;;;;;;5.80;3.47;;;;;;;10.84;100.00;99850.12;1801668;77;21452;-64
2022/11/03 19:25:58;;;;;;;4.87;4.47;;;;;;;10.86;100.00;99844.33;1820443;77;21556;-64
2022/11/03 19:28:24;;;;;;;5.25;4.85;;;;;;;10.88;100.00;99852.17;1821428;77;21459;-65
2022/11/03 19:30:51;;;;;;;5.35;4.85;;;;;;;10.90;100.00;99843.75;1781134;77;22112;-65
2022/11/03 19:33:22;;;;;;;6.42;5.42;;;;;;;10.92;100.00;99851.12;1820968;76;21530;-65
2022/11/03 19:35:49;;;;;;;6.22;5.42;;;;;;;10.93;100.00;99852.00;1816799;76;21436;-65
2022/11/03 19:38:17;;;;;;;5.80;5.20;;;;;;;10.94;100.00;99850.59;1823058;77;21507;-64
2022/11/03 19:43:30;;;;;;;6.03;5.47;;;;;;;11.03;100.00;99850.22;1815621;76;21791;-65
2022/11/03 19:45:58;;;;;;;5.40;4.78;;;;;;;11.04;100.00;99849.78;1823675;77;21400;-64
2022/11/03 19:48:28;;;;;;;6.10;5.55;;;;;;;11.08;100.00;99848.26;1797966;76;21059;-64
2022/11/03 19:50:55;;;;;;;5.53;5.08;;;;;;;11.12;100.00;99845.52;1818441;76;21080;-64
2022/11/03 19:53:26;;;;;;;6.10;5.50;;;;;;;11.12;100.00;99843.73;1804366;76;21416;-64
2022/11/03 19:55:54;;;;;;;5.60;5.10;;;;;;;11.13;100.00;99844.11;1797670;77;22090;-64
2022/11/03 19:58:24;;;;;;;5.22;4.65;;;;;;;11.14;100.00;99840.56;1796578;76;21594;-65
2022/11/03 20:00:51;;;;;;;5.97;5.37;;;;;;;11.17;100.00;99838.26;1790009;77;21475;-65
2022/11/03 20:03:18;;;;;;;5.55;5.05;;;;;;;11.20;100.00;99838.14;1792520;77;21412;-65
2022/11/03 20:05:46;;;;;;;4.83;4.42;;;;;;;11.18;100.00;99838.20;1793275;77;21502;-65
2022/11/03 20:08:17;;;;;;;4.67;4.15;;;;;;;11.15;100.00;99840.98;1815103;77;21444;-64
2022/11/03 20:10:46;;;;;;;4.42;4.03;;;;;;;11.15;100.00;99838.34;1799719;77;21522;-65
2022/11/03 20:13:14;;;;;;;4.92;4.53;;;;;;;11.17;100.00;99835.19;1814018;76;21626;-64
2022/11/03 20:15:41;;;;;;;4.97;4.47;;;;;;;11.21;100.00;99850.39;1779262;77;21460;-65
2022/11/03 20:18:11;;;;;;;5.85;5.22;;;;;;;11.22;100.00;99841.56;1781660;77;21536;-65
2022/11/03 20:20:39;;;;;;;5.40;4.90;;;;;;;11.20;100.00;99838.14;1792212;77;21528;-65